createdAt,value
2019-05-12T00:50:28.616Z,99.99
2019-05-12T01:08:19.877Z,99.99
2019-05-12T01:09:19.891Z,99.99
2019-05-12T01:10:19.819Z,99.99
2019-05-12T01:11:20.513Z,99.99
2019-05-12T01:12:19.729Z,99.99
2019-05-12T01:13:19.698Z,99.99
2019-05-12T01:14:19.700Z,99.99
2019-05-12T01:15:19.511Z,99.99
2019-05-12T01:16:19.264Z,99.99
2019-05-12T01:17:19.254Z,99.99
2019-05-12T01:18:19.198Z,99.99
2019-05-12T01:19:19.177Z,99.99
2019-05-12T01:20:19.144Z,99.99
2019-05-12T01:21:19.127Z,99.99
2019-05-12T01:22:19.119Z,99.99
2019-05-12T01:23:23.053Z,99.99
2019-05-12T01:24:19.083Z,99.99
2019-05-12T01:25:19.086Z,99.99
2019-05-12T01:26:19.043Z,99.99
2019-05-12T01:27:19.054Z,99.99
2019-05-12T01:28:19.011Z,99.99
2019-05-12T01:29:18.972Z,99.99
2019-05-12T01:30:18.995Z,99.99
2019-05-12T01:31:18.981Z,99.99
2019-05-12T01:32:18.931Z,99.99
2019-05-12T01:33:18.893Z,99.99
2019-05-12T01:34:18.882Z,99.99
2019-05-12T01:35:18.881Z,99.99
2019-05-12T01:36:18.839Z,99.99
2019-05-12T01:37:18.840Z,99.99
2019-05-12T01:38:18.795Z,99.99
2019-05-12T01:39:18.921Z,99.99
2019-05-12T01:40:19.138Z,99.99
2019-05-12T01:41:18.762Z,99.99
2019-05-12T01:42:18.723Z,99.99
2019-05-12T01:43:21.225Z,99.99
2019-05-12T01:44:18.682Z,99.99
2019-05-12T01:45:18.678Z,99.99
2019-05-12T01:46:18.668Z,99.99
2019-05-12T01:47:18.871Z,99.99
2019-05-12T01:48:18.616Z,99.99
2019-05-12T01:49:18.834Z,99.99
2019-05-12T01:50:18.594Z,99.99
2019-05-12T01:51:18.569Z,99.99
2019-05-12T01:52:18.544Z,99.99
2019-05-12T01:53:18.515Z,99.99
2019-05-12T01:54:18.966Z,99.99
2019-05-12T01:55:18.693Z,99.99
2019-05-12T01:56:18.462Z,99.99
2019-05-12T01:57:18.924Z,99.99
2019-05-12T01:58:19.400Z,99.99
2019-05-12T01:59:18.601Z,99.99
2019-05-12T02:00:18.401Z,99.99
2019-05-12T02:01:18.528Z,99.99
2019-05-12T02:02:18.342Z,99.99
2019-05-12T02:03:18.341Z,99.99
2019-05-12T02:04:18.318Z,99.99
2019-05-12T02:05:18.411Z,99.99
2019-05-12T02:06:18.533Z,99.99
2019-05-12T02:07:18.586Z,99.99
2019-05-12T02:08:18.566Z,99.99
2019-05-12T02:09:18.660Z,99.99
2019-05-12T02:10:18.198Z,99.99
2019-05-12T02:11:18.468Z,99.99
2019-05-12T02:12:18.297Z,99.99
2019-05-12T02:13:18.326Z,99.99
2019-05-12T02:14:18.407Z,99.99
2019-05-12T02:15:18.448Z,99.99
2019-05-12T02:16:18.827Z,99.99
2019-05-12T02:17:18.072Z,99.99
2019-05-12T02:18:18.054Z,99.99
2019-05-12T02:19:18.021Z,99.99
2019-05-12T02:20:18.216Z,99.99
2019-05-12T02:21:18.840Z,99.99
2019-05-12T02:22:18.946Z,99.99
2019-05-12T02:23:17.969Z,99.99
2019-05-12T02:24:26.679Z,99.99
2019-05-12T02:25:18.621Z,99.99
2019-05-12T02:26:18.956Z,99.99
2019-05-12T02:27:17.948Z,99.99
2019-05-12T02:28:18.094Z,99.99
2019-05-12T02:29:18.413Z,99.99
2019-05-12T02:30:20.337Z,99.99
2019-05-12T02:31:20.599Z,99.99
2019-05-12T02:32:17.798Z,99.99
2019-05-12T02:36:15.079Z,99.99
2019-05-12T02:37:15.317Z,99.99
2019-05-12T02:38:14.433Z,99.99
2019-05-12T02:39:14.837Z,99.99
2019-05-12T03:11:35.523Z,99.99
2019-05-12T03:12:34.483Z,99.99
2019-05-12T03:57:16.814Z,99.99
2019-05-12T03:58:16.860Z,99.99
2019-05-12T03:59:16.855Z,99.99
2019-05-12T04:00:16.861Z,99.99
2019-05-12T04:01:16.785Z,99.99
2019-05-12T04:05:38.269Z,99.99
2019-05-12T04:17:18.725Z,99.99
2019-05-12T04:28:45.554Z,99.99
2019-05-12T04:34:06.893Z,99.99
2019-05-12T04:35:06.602Z,99.99
2019-05-12T04:36:06.318Z,99.99
2019-05-12T04:37:06.091Z,99.99
2019-05-12T04:38:06.102Z,99.99
2019-05-12T04:39:06.147Z,99.99
2019-05-12T04:40:06.072Z,99.99
2019-05-12T04:41:06.260Z,99.99
2019-05-12T04:42:05.943Z,99.99
2019-05-12T04:43:06.798Z,99.99
2019-05-12T04:44:06.370Z,99.99
2019-05-12T04:45:06.029Z,99.99
2019-05-12T04:48:27.886Z,99.99
2019-05-12T04:49:28.220Z,99.99
2019-05-12T05:59:50.398Z,99.99
2019-05-12T06:00:54.819Z,99.99
2019-05-12T06:03:48.092Z,99.99
2019-05-12T06:04:49.801Z,99.99
2019-05-12T06:05:48.047Z,99.99
2019-05-12T06:06:50.478Z,99.99
2019-05-12T06:07:47.987Z,99.99
2019-05-12T06:08:48.015Z,99.99
2019-05-12T06:09:47.928Z,99.99
2019-05-12T06:10:47.900Z,99.99
2019-05-12T06:11:47.905Z,99.99
2019-05-12T06:12:50.838Z,99.99
2019-05-12T06:13:47.858Z,99.99
2019-05-12T06:14:54.342Z,99.99
2019-05-12T06:15:47.845Z,99.99
2019-05-12T06:16:47.827Z,99.99
2019-05-12T06:17:47.775Z,99.99
2019-05-12T06:18:47.767Z,99.99
2019-05-12T06:19:47.833Z,99.99
2019-05-12T06:20:47.724Z,99.99
2019-05-12T06:21:47.727Z,99.99
2019-05-12T06:22:48.558Z,99.99
2019-05-12T06:23:47.671Z,99.99
2019-05-12T06:24:49.194Z,99.99
2019-05-12T06:33:44.814Z,99.99
2019-05-12T06:34:44.508Z,99.99
2019-05-12T07:00:35.567Z,99.99
2019-05-12T07:01:35.398Z,99.99
2019-05-12T07:02:44.578Z,99.99
2019-05-12T07:03:37.155Z,99.99
2019-05-12T07:04:35.290Z,99.99
2019-05-12T07:05:38.392Z,99.99
2019-05-12T07:06:34.886Z,99.99
2019-05-12T07:07:41.880Z,99.99
2019-05-12T07:08:38.319Z,99.99
2019-05-12T07:09:39.780Z,99.99
2019-05-12T07:10:42.995Z,99.99
2019-05-12T07:11:42.567Z,99.99
2019-05-12T07:12:43.598Z,99.99
2019-05-12T07:13:34.762Z,99.99
2019-05-12T07:14:34.784Z,99.99
2019-05-12T07:15:39.863Z,99.99
2019-05-12T07:16:34.750Z,99.99
2019-05-12T07:17:35.678Z,99.99
2019-05-12T07:18:37.113Z,99.99
2019-05-12T07:19:34.730Z,99.99
2019-05-12T07:20:38.749Z,99.99
2019-05-12T07:21:34.650Z,99.99
2019-05-12T07:22:43.572Z,99.99
2019-05-12T07:23:34.615Z,99.99
2019-05-12T07:24:34.585Z,99.99
2019-05-12T07:25:36.791Z,99.99
2019-05-12T07:26:34.531Z,99.99
2019-05-12T07:27:39.361Z,99.99
2019-05-12T07:28:36.229Z,99.99
2019-05-12T07:29:34.506Z,99.99
2019-05-12T07:30:35.317Z,99.99
2019-05-12T07:31:34.451Z,99.99
2019-05-12T07:32:34.480Z,99.99
2019-05-12T07:33:41.375Z,99.99
2019-05-12T07:34:34.415Z,99.99
2019-05-12T07:35:34.434Z,99.99
2019-05-12T07:36:34.397Z,99.99
2019-05-12T07:37:34.360Z,99.99
2019-05-12T07:38:34.445Z,99.99
2019-05-12T07:39:39.295Z,99.99
2019-05-12T07:40:37.376Z,99.99
2019-05-12T07:41:34.359Z,99.99
2019-05-12T08:23:18.351Z,99.99
2019-05-12T08:24:18.277Z,99.99
2019-05-12T08:28:15.470Z,99.99
2019-05-12T08:29:10.511Z,99.99
2019-05-12T08:31:40.352Z,99.99
2019-05-12T08:32:35.983Z,99.99
2019-05-12T08:34:40.546Z,99.99
2019-05-12T08:35:40.521Z,99.99
2019-05-12T08:37:46.125Z,99.99
2019-05-12T08:38:46.095Z,99.99
2019-05-12T08:40:45.346Z,99.99
2019-05-12T08:41:39.675Z,99.99
2019-05-12T08:43:47.135Z,99.99
2019-05-12T08:44:44.353Z,99.99
2019-05-12T08:45:44.558Z,99.99
2019-05-12T08:46:51.963Z,99.99
2019-05-12T08:47:44.284Z,99.99
2019-05-12T08:48:44.708Z,99.99
2019-05-12T08:49:51.008Z,99.99
2019-05-12T08:50:46.156Z,99.99
2019-05-12T08:51:44.348Z,99.99
2019-05-12T08:52:44.466Z,99.99
2019-05-12T08:53:44.178Z,99.99
2019-05-12T08:54:47.669Z,99.99
2019-05-12T08:55:44.143Z,99.99
2019-05-12T08:56:44.126Z,99.99
2019-05-12T08:57:49.433Z,99.99
2019-05-12T08:58:51.099Z,99.99
2019-05-12T08:59:44.232Z,99.99
2019-05-12T09:00:49.696Z,99.99
2019-05-12T09:01:44.048Z,99.99
2019-05-12T09:02:48.735Z,99.99
2019-05-12T09:03:44.388Z,99.99
2019-05-12T09:04:51.541Z,99.99
2019-05-12T09:05:44.557Z,99.99
2019-05-12T09:06:43.962Z,99.99
2019-05-12T09:07:43.951Z,99.99
2019-05-12T09:08:49.048Z,99.99
2019-05-12T09:09:44.030Z,99.99
2019-05-12T09:10:45.193Z,99.99
2019-05-12T09:11:44.170Z,99.99
2019-05-12T09:12:44.212Z,99.99
2019-05-12T09:13:44.106Z,99.99
2019-05-12T09:14:46.106Z,99.99
2019-05-12T09:15:43.988Z,99.99
2019-05-12T09:16:44.045Z,99.99
2019-05-12T09:17:52.674Z,99.99
2019-05-12T09:18:43.777Z,99.99
2019-05-12T09:19:43.781Z,99.99
2019-05-12T09:20:48.716Z,99.99
2019-05-12T09:21:44.353Z,99.99
2019-05-12T09:22:43.715Z,99.99
2019-05-12T09:23:45.660Z,99.99
2019-05-12T09:24:44.140Z,99.99
2019-05-12T09:25:46.818Z,99.99
2019-05-12T09:26:43.662Z,99.99
2019-05-12T09:27:48.055Z,99.99
2019-05-12T09:28:49.863Z,99.99
2019-05-12T09:29:43.671Z,99.99
2019-05-12T09:30:45.869Z,99.99
2019-05-12T09:31:44.027Z,99.99
2019-05-12T09:32:48.249Z,99.99
2019-05-12T09:33:44.569Z,99.99
2019-05-12T09:34:46.882Z,99.99
2019-05-12T09:35:43.944Z,99.99
2019-05-12T09:36:44.244Z,99.99
2019-05-12T09:37:44.128Z,99.99
2019-05-12T09:38:43.998Z,99.99
2019-05-12T09:39:47.411Z,99.99
2019-05-12T09:40:43.886Z,99.99
2019-05-12T09:41:49.465Z,99.99
2019-05-12T09:42:44.085Z,99.99
2019-05-12T09:43:48.915Z,99.99
2019-05-12T09:44:43.894Z,99.99
2019-05-12T09:45:51.635Z,99.99
2019-05-12T09:46:44.003Z,99.99
2019-05-12T09:47:43.744Z,99.99
2019-05-12T09:48:51.901Z,99.99
2019-05-12T09:49:44.438Z,99.99
2019-05-12T09:50:46.245Z,99.99
2019-05-12T09:51:45.926Z,99.99
2019-05-12T09:52:44.128Z,99.99
2019-05-12T09:53:51.024Z,99.99
2019-05-12T09:54:44.460Z,99.99
2019-05-12T09:55:43.898Z,99.99
2019-05-12T09:56:44.123Z,99.99
2019-05-12T09:57:45.134Z,99.99
2019-05-12T09:58:43.711Z,99.99
2019-05-12T09:59:45.905Z,99.99
2019-05-12T10:00:43.505Z,99.99
2019-05-12T10:01:45.945Z,99.99
2019-05-12T10:02:43.684Z,99.99
2019-05-12T10:03:43.727Z,99.99
2019-05-12T10:04:43.762Z,99.99
2019-05-12T10:05:44.178Z,99.99
2019-05-12T10:06:44.421Z,99.99
2019-05-12T10:07:44.548Z,99.99
2019-05-12T10:08:43.569Z,99.99
2019-05-12T10:09:44.012Z,99.99
2019-05-12T10:10:46.733Z,99.99
2019-05-12T10:11:44.736Z,99.99
2019-05-12T10:12:46.460Z,99.99
2019-05-12T10:13:44.960Z,99.99
2019-05-12T10:14:45.875Z,99.99
2019-05-12T10:15:43.088Z,99.99
2019-05-12T10:16:45.708Z,99.99
2019-05-12T10:17:43.509Z,99.99
2019-05-12T10:18:51.025Z,99.99
2019-05-12T10:19:43.464Z,99.99
2019-05-12T10:20:44.055Z,99.99
2019-05-12T10:21:43.993Z,99.99
2019-05-12T10:22:43.747Z,99.99
2019-05-12T10:23:43.614Z,99.99
2019-05-12T10:24:54.632Z,99.99
2019-05-12T10:25:44.717Z,99.99
2019-05-12T10:26:48.749Z,99.99
2019-05-12T10:27:44.334Z,99.99
2019-05-12T10:28:51.515Z,99.99
2019-05-12T10:29:43.691Z,99.99
2019-05-12T10:30:47.185Z,99.99
2019-05-12T10:31:44.516Z,99.99
2019-05-12T10:32:43.598Z,99.99
2019-05-12T10:33:43.359Z,99.99
2019-05-12T10:34:44.367Z,99.99
2019-05-12T10:35:43.912Z,99.99
2019-05-12T10:36:44.902Z,99.99
2019-05-12T10:37:43.706Z,99.99
2019-05-12T10:38:43.435Z,99.99
2019-05-12T10:39:42.884Z,99.99
2019-05-12T10:40:44.435Z,99.99
2019-05-12T10:41:43.692Z,98.20
2019-05-12T10:42:46.115Z,95.40
2019-05-12T10:43:43.397Z,94.82
2019-05-12T10:44:43.730Z,93.37
2019-05-12T10:45:44.182Z,94.87
2019-05-12T10:46:42.829Z,95.54
2019-05-12T10:47:42.827Z,95.16
2019-05-12T10:48:44.321Z,94.53
2019-05-12T10:49:44.150Z,93.91
2019-05-12T10:50:44.317Z,93.71
2019-05-12T10:51:44.140Z,93.09
2019-05-12T10:52:44.003Z,91.45
2019-05-12T10:53:43.257Z,90.54
2019-05-12T10:54:43.450Z,90.40
2019-05-12T10:55:44.062Z,90.73
2019-05-12T10:56:43.833Z,91.51
2019-05-12T10:57:43.895Z,92.38
2019-05-12T10:58:43.980Z,94.97
2019-05-12T10:59:45.264Z,94.87
2019-05-12T11:00:44.379Z,94.87
2019-05-12T11:01:47.229Z,95.12
2019-05-12T11:02:42.716Z,95.17
2019-05-12T11:03:50.660Z,94.73
2019-05-12T11:04:43.977Z,95.40
2019-05-12T11:05:44.088Z,96.03
2019-05-12T11:06:44.741Z,94.92
2019-05-12T11:07:43.580Z,94.34
2019-05-12T11:08:47.400Z,92.27
2019-05-12T11:09:43.942Z,92.36
2019-05-12T11:10:42.684Z,91.93
2019-05-12T11:11:46.773Z,91.39
2019-05-12T11:12:44.187Z,90.57
2019-05-12T11:13:48.609Z,87.71
2019-05-12T11:14:43.884Z,86.56
2019-05-12T11:15:47.771Z,86.65
2019-05-12T11:16:44.587Z,85.59
2019-05-12T11:17:46.066Z,85.11
2019-05-12T11:18:43.720Z,84.28
2019-05-12T11:19:47.109Z,83.37
2019-05-12T11:20:44.854Z,82.89
2019-05-12T11:21:44.337Z,83.18
2019-05-12T11:22:43.902Z,83.52
2019-05-12T11:23:43.637Z,83.19
2019-05-12T11:24:44.441Z,84.93
2019-05-12T11:25:43.977Z,86.28
2019-05-12T11:26:43.245Z,87.29
2019-05-12T11:27:43.685Z,86.52
2019-05-12T11:28:42.568Z,84.88
2019-05-12T11:29:48.593Z,83.14
2019-05-12T11:30:43.637Z,83.56
2019-05-12T11:31:44.098Z,83.14
2019-05-12T11:32:44.203Z,82.17
2019-05-12T11:33:43.611Z,83.14
2019-05-12T11:34:44.373Z,83.62
2019-05-12T11:35:43.507Z,83.42
2019-05-12T11:36:43.768Z,83.37
2019-05-12T11:37:42.529Z,82.50
2019-05-12T11:38:44.352Z,80.76
2019-05-12T11:39:45.251Z,81.44
2019-05-12T11:40:43.721Z,80.61
2019-05-12T11:41:44.231Z,78.38
2019-05-12T11:42:46.837Z,78.52
2019-05-12T11:43:42.497Z,78.52
2019-05-12T11:44:44.308Z,78.56
2019-05-12T11:45:44.222Z,79.47
2019-05-12T11:46:44.126Z,79.80
2019-05-12T11:47:44.642Z,79.41
2019-05-12T11:48:46.311Z,77.51
2019-05-12T11:49:44.164Z,75.51
2019-05-12T11:50:49.504Z,71.99
2019-05-12T11:51:42.510Z,72.96
2019-05-12T11:52:46.057Z,72.57
2019-05-12T11:53:44.548Z,70.05
2019-05-12T11:54:47.186Z,70.83
2019-05-12T11:55:43.814Z,71.70
2019-05-12T11:56:46.613Z,72.24
2019-05-12T11:57:43.774Z,73.50
2019-05-12T11:58:47.415Z,73.41
2019-05-12T11:59:43.451Z,71.86
2019-05-12T12:00:44.127Z,72.60
2019-05-12T12:01:47.435Z,71.62
2019-05-12T12:02:43.741Z,70.86
2019-05-12T12:03:44.047Z,72.50
2019-05-12T12:04:43.518Z,73.08
2019-05-12T12:05:44.278Z,72.83
2019-05-12T12:06:43.807Z,72.53
2019-05-12T12:07:49.072Z,70.11
2019-05-12T12:08:44.169Z,70.25
2019-05-12T12:09:43.852Z,70.15
2019-05-12T12:10:42.443Z,71.06
2019-05-12T12:11:43.339Z,71.96
2019-05-12T12:12:45.305Z,73.13
2019-05-12T12:13:42.457Z,71.12
2019-05-12T12:14:46.240Z,70.06
2019-05-12T12:15:42.449Z,70.29
2019-05-12T12:16:50.199Z,69.74
2019-05-12T12:17:44.149Z,68.38
2019-05-12T12:18:48.610Z,68.28
2019-05-12T12:19:46.701Z,67.80
2019-05-12T12:20:44.263Z,67.70
2019-05-12T12:21:48.054Z,68.80
2019-05-12T12:22:43.434Z,68.90
2019-05-12T12:23:48.817Z,69.19
2019-05-12T12:24:43.644Z,69.09
2019-05-12T12:25:43.079Z,65.98
2019-05-12T12:26:44.590Z,64.95
2019-05-12T12:27:44.249Z,65.59
2019-05-12T12:28:43.499Z,63.26
2019-05-12T12:29:43.861Z,60.35
2019-05-12T12:30:47.471Z,61.97
2019-05-12T12:31:43.394Z,62.35
2019-05-12T12:32:44.353Z,60.00
2019-05-12T12:33:46.867Z,62.49
2019-05-12T12:34:44.047Z,64.92
2019-05-12T12:35:44.352Z,65.17
2019-05-12T12:36:43.564Z,64.59
2019-05-12T12:37:44.838Z,64.50
2019-05-12T12:38:43.984Z,65.40
2019-05-12T12:39:43.473Z,66.08
2019-05-12T12:40:44.186Z,65.14
2019-05-12T12:41:45.669Z,64.36
2019-05-12T12:42:47.050Z,63.39
2019-05-12T12:43:43.267Z,64.36
2019-05-12T12:44:42.482Z,63.98
2019-05-12T12:45:43.449Z,64.26
2019-05-12T12:46:44.061Z,63.88
2019-05-12T12:47:44.407Z,65.17
2019-05-12T12:48:43.946Z,65.40
2019-05-12T12:49:47.570Z,65.98
2019-05-12T12:50:44.409Z,62.41
2019-05-12T12:51:43.561Z,60.96
2019-05-12T12:52:44.801Z,60.28
2019-05-12T12:53:43.769Z,59.99
2019-05-12T12:54:43.852Z,60.86
2019-05-12T12:55:43.716Z,59.69
2019-05-12T12:56:42.523Z,60.25
2019-05-12T12:57:46.467Z,60.38
2019-05-12T12:58:43.977Z,61.83
2019-05-12T12:59:50.997Z,58.92
2019-05-12T13:00:47.397Z,59.11
2019-05-12T13:01:44.275Z,59.89
2019-05-12T13:02:45.080Z,60.70
2019-05-12T13:03:43.496Z,60.50
2019-05-12T13:04:46.050Z,59.14
2019-05-12T13:05:43.896Z,57.39
2019-05-12T13:06:43.777Z,57.29
2019-05-12T13:07:43.949Z,58.10
2019-05-12T13:08:43.414Z,58.17
2019-05-12T13:09:44.107Z,56.71
2019-05-12T13:10:47.222Z,57.10
2019-05-12T13:11:44.450Z,57.29
2019-05-12T13:12:43.706Z,57.97
2019-05-12T13:13:42.590Z,56.12
2019-05-12T13:14:44.333Z,54.47
2019-05-12T13:15:44.408Z,53.40
2019-05-12T13:16:43.715Z,53.08
2019-05-12T13:17:44.739Z,53.35
2019-05-12T13:18:43.505Z,53.93
2019-05-12T13:19:43.684Z,54.32
2019-05-12T13:20:43.591Z,53.16
2019-05-12T13:21:43.938Z,52.25
2019-05-12T13:22:44.403Z,52.35
2019-05-12T13:23:45.269Z,52.42
2019-05-12T13:24:43.956Z,52.62
2019-05-12T13:25:48.372Z,52.33
2019-05-12T13:26:43.550Z,52.52
2019-05-12T13:27:42.633Z,53.20
2019-05-12T13:28:45.528Z,53.49
2019-05-12T13:29:42.642Z,53.10
2019-05-12T13:30:47.176Z,52.55
2019-05-12T13:31:46.479Z,50.02
2019-05-12T13:32:44.190Z,49.05
2019-05-12T13:33:44.248Z,47.78
2019-05-12T13:34:43.024Z,48.57
2019-05-12T13:35:43.484Z,48.27
2019-05-12T13:36:44.010Z,46.31
2019-05-12T13:37:43.287Z,45.72
2019-05-12T13:38:44.292Z,46.31
2019-05-12T13:39:55.174Z,47.66
2019-05-12T13:40:44.198Z,47.86
2019-05-12T13:41:43.778Z,47.28
2019-05-12T13:42:43.782Z,46.69
2019-05-12T13:43:42.688Z,45.53
2019-05-12T13:44:43.615Z,46.01
2019-05-12T13:45:43.968Z,46.69
2019-05-12T13:46:43.757Z,46.21
2019-05-12T13:47:43.976Z,45.92
2019-05-12T13:48:43.399Z,45.53
2019-05-12T13:49:47.272Z,46.04
2019-05-12T13:50:43.308Z,46.42
2019-05-12T13:51:42.965Z,46.04
2019-05-12T13:52:42.716Z,46.84
2019-05-12T13:53:46.513Z,46.84
2019-05-12T13:54:43.703Z,45.57
2019-05-12T13:55:47.546Z,45.97
2019-05-12T13:56:44.348Z,46.45
2019-05-12T13:57:52.323Z,46.15
2019-05-12T13:58:45.703Z,45.18
2019-05-12T13:59:43.493Z,45.18
2019-05-12T14:00:50.910Z,45.77
2019-05-12T14:01:45.505Z,45.38
2019-05-12T14:02:44.232Z,43.24
2019-05-12T14:03:48.674Z,43.44
2019-05-12T14:04:44.425Z,44.41
2019-05-12T14:05:50.546Z,43.92
2019-05-12T14:06:42.763Z,42.46
2019-05-12T14:07:43.681Z,41.96
2019-05-12T14:08:44.511Z,42.35
2019-05-12T14:09:43.726Z,43.22
2019-05-12T14:10:44.755Z,42.93
2019-05-12T14:11:43.754Z,43.20
2019-05-12T14:12:43.887Z,43.40
2019-05-12T14:13:42.793Z,43.78
2019-05-12T14:14:43.688Z,43.78
2019-05-12T14:15:44.349Z,44.29
2019-05-12T14:16:44.647Z,44.19
2019-05-12T14:17:43.583Z,44.48
2019-05-12T14:18:44.165Z,44.68
2019-05-12T14:19:43.769Z,44.60
2019-05-12T14:20:44.872Z,43.73
2019-05-12T14:21:42.795Z,43.73
2019-05-12T14:22:44.757Z,42.64
2019-05-12T14:23:43.664Z,43.10
2019-05-12T14:24:46.734Z,42.81
2019-05-12T14:25:43.741Z,42.61
2019-05-12T14:26:47.537Z,42.33
2019-05-12T14:27:44.321Z,41.74
2019-05-12T14:28:45.516Z,41.45
2019-05-12T14:29:44.098Z,39.90
2019-05-12T14:30:47.370Z,39.70
2019-05-12T14:31:51.060Z,38.65
2019-05-12T14:32:44.058Z,37.98
2019-05-12T14:33:44.214Z,37.78
2019-05-12T14:34:43.398Z,37.90
2019-05-12T14:35:45.311Z,37.70
2019-05-12T14:36:43.310Z,37.34
2019-05-12T14:37:45.830Z,36.85
2019-05-12T14:38:42.801Z,36.67
2019-05-12T14:39:46.220Z,36.38
2019-05-12T14:40:42.817Z,35.03
2019-05-12T14:41:52.834Z,34.84
2019-05-12T14:42:44.236Z,34.45
2019-05-12T14:43:47.523Z,33.67
2019-05-12T14:44:44.963Z,33.77
2019-05-12T14:45:44.011Z,33.69
2019-05-12T14:46:46.356Z,33.39
2019-05-12T14:47:43.678Z,33.01
2019-05-12T14:48:46.454Z,32.81
2019-05-12T14:49:43.594Z,32.50
2019-05-12T14:50:44.153Z,32.29
2019-05-12T14:51:44.270Z,32.47
2019-05-12T14:52:43.990Z,32.84
2019-05-12T14:53:46.065Z,33.04
2019-05-12T14:54:43.558Z,32.24
2019-05-12T14:55:42.805Z,32.13
2019-05-12T14:56:47.147Z,32.79
2019-05-12T14:57:42.792Z,32.79
2019-05-12T14:58:44.205Z,33.09
2019-05-12T14:59:42.797Z,33.18
2019-05-12T15:00:44.560Z,31.82
2019-05-12T15:01:56.918Z,32.12
2019-05-12T15:02:43.737Z,31.73
2019-05-12T15:03:47.814Z,31.71
2019-05-12T15:04:43.581Z,31.42
2019-05-12T15:05:47.381Z,31.32
2019-05-12T15:06:44.343Z,31.31
2019-05-12T15:07:51.198Z,31.28
2019-05-12T15:08:43.642Z,31.56
2019-05-12T15:09:42.766Z,31.54
2019-05-12T15:10:42.784Z,32.68
2019-05-12T15:11:43.744Z,33.45
2019-05-12T15:12:44.140Z,33.26
2019-05-12T15:13:43.696Z,33.05
2019-05-12T15:14:43.853Z,32.75
2019-05-12T15:15:44.060Z,32.15
2019-05-12T15:16:44.784Z,32.62
2019-05-12T15:17:44.379Z,33.20
2019-05-12T15:18:46.812Z,33.68
2019-05-12T15:19:44.057Z,33.87
2019-05-12T15:20:49.975Z,33.70
2019-05-12T15:21:43.691Z,33.52
2019-05-12T15:22:51.247Z,33.42
2019-05-12T15:23:44.125Z,32.94
2019-05-12T15:24:44.135Z,32.94
2019-05-12T15:25:43.312Z,33.04
2019-05-12T15:26:42.685Z,32.65
2019-05-12T15:27:46.052Z,32.94
2019-05-12T15:28:43.412Z,33.12
2019-05-12T15:29:43.145Z,33.00
2019-05-12T15:30:43.640Z,32.81
2019-05-12T15:31:53.127Z,32.89
2019-05-12T15:32:42.649Z,33.36
2019-05-12T15:33:43.965Z,33.44
2019-05-12T15:34:44.153Z,34.30
2019-05-12T15:35:43.915Z,34.09
2019-05-12T15:36:45.902Z,34.37
2019-05-12T15:37:43.707Z,34.54
2019-05-12T15:38:43.703Z,35.10
2019-05-12T15:39:44.034Z,35.47
2019-05-12T15:40:43.397Z,35.95
2019-05-12T15:41:42.589Z,36.03
2019-05-12T15:42:44.969Z,36.68
2019-05-12T15:43:44.418Z,36.78
2019-05-12T15:44:43.339Z,37.05
2019-05-12T15:45:43.644Z,37.34
2019-05-12T15:46:46.002Z,37.80
2019-05-12T15:47:44.556Z,37.89
2019-05-12T15:48:44.498Z,38.28
2019-05-12T15:49:44.269Z,38.18
2019-05-12T15:50:45.553Z,38.54
2019-05-12T15:51:53.117Z,38.64
2019-05-12T15:52:45.394Z,39.31
2019-05-12T15:53:44.557Z,39.50
2019-05-12T15:54:47.188Z,39.39
2019-05-12T15:55:43.474Z,39.29
2019-05-12T15:56:42.410Z,39.77
2019-05-12T15:57:44.015Z,39.77
2019-05-12T15:58:44.159Z,39.68
2019-05-12T15:59:43.495Z,40.06
2019-05-12T16:00:43.857Z,39.97
2019-05-12T16:01:43.916Z,40.06
2019-05-12T16:02:44.258Z,40.14
2019-05-12T16:03:43.834Z,39.94
2019-05-12T16:04:44.545Z,40.71
2019-05-12T16:05:44.374Z,40.61
2019-05-12T16:06:52.615Z,40.81
2019-05-12T16:07:43.639Z,40.90
2019-05-12T16:08:42.272Z,40.71
2019-05-12T16:09:45.385Z,41.09
2019-05-12T16:10:42.244Z,40.88
2019-05-12T16:11:42.236Z,41.07
2019-05-12T16:12:43.422Z,41.17
2019-05-12T16:13:44.909Z,40.88
2019-05-12T16:14:44.108Z,41.27
2019-05-12T16:15:43.835Z,41.36
2019-05-12T16:16:42.881Z,41.55
2019-05-12T16:17:44.075Z,41.82
2019-05-12T16:18:46.685Z,41.82
2019-05-12T16:19:43.819Z,42.11
2019-05-12T16:20:44.203Z,42.01
2019-05-12T16:21:45.338Z,42.01
2019-05-12T16:22:44.896Z,41.72
2019-05-12T16:23:44.515Z,41.91
2019-05-12T16:24:43.285Z,41.99
2019-05-12T16:25:42.054Z,42.18
2019-05-12T16:26:45.368Z,42.66
2019-05-12T16:27:44.185Z,42.56
2019-05-12T16:28:44.005Z,42.66
2019-05-12T16:29:45.554Z,42.27
2019-05-12T16:30:43.901Z,42.56
2019-05-12T16:31:45.597Z,43.04
2019-05-12T16:32:46.974Z,42.76
2019-05-12T16:33:43.645Z,42.66
2019-05-12T16:34:44.930Z,42.85
2019-05-12T16:35:44.117Z,42.94
2019-05-12T16:36:47.476Z,42.93
2019-05-12T16:37:43.987Z,43.30
2019-05-12T16:38:44.364Z,43.21
2019-05-12T16:39:46.869Z,43.21
2019-05-12T16:40:45.549Z,43.21
2019-05-12T16:41:43.863Z,43.69
2019-05-12T16:42:48.303Z,43.69
2019-05-12T16:43:44.019Z,43.59
2019-05-12T16:44:43.841Z,43.59
2019-05-12T16:45:41.786Z,43.50
2019-05-12T16:46:41.769Z,43.21
2019-05-12T16:47:41.772Z,43.50
2019-05-12T16:48:42.248Z,43.69
2019-05-12T16:49:44.062Z,43.69
2019-05-12T16:50:43.724Z,43.95
2019-05-12T16:51:43.702Z,44.34
2019-05-12T16:52:42.825Z,44.05
2019-05-12T16:53:43.633Z,44.15
2019-05-12T16:54:43.815Z,44.43
2019-05-12T16:55:46.504Z,44.34
2019-05-12T16:56:43.370Z,44.43
2019-05-12T16:57:47.535Z,44.43
2019-05-12T16:58:43.375Z,44.72
2019-05-12T16:59:41.596Z,44.53
2019-05-12T17:00:45.185Z,44.72
2019-05-12T17:01:43.756Z,45.01
2019-05-12T17:02:42.283Z,45.20
2019-05-12T17:03:41.553Z,45.29
2019-05-12T17:04:41.522Z,45.29
2019-05-12T17:05:41.512Z,45.20
2019-05-12T17:06:43.262Z,45.08
2019-05-12T17:07:43.907Z,45.75
2019-05-12T17:08:43.694Z,45.46
2019-05-12T17:09:43.357Z,45.56
2019-05-12T17:10:46.990Z,45.37
2019-05-12T17:11:46.693Z,45.37
2019-05-12T17:12:43.688Z,45.56
2019-05-12T17:13:47.351Z,45.17
2019-05-12T17:14:48.091Z,45.56
2019-05-12T17:15:43.367Z,45.75
2019-05-12T17:16:45.124Z,45.65
2019-05-12T17:17:41.338Z,46.13
2019-05-12T17:18:41.326Z,45.84
2019-05-12T17:19:43.379Z,45.94
2019-05-12T17:20:47.002Z,46.22
2019-05-12T17:21:41.288Z,46.32
2019-05-12T17:22:45.776Z,46.22
2019-05-12T17:23:41.258Z,46.51
2019-05-12T17:24:41.274Z,46.03
2019-05-12T17:25:41.226Z,46.32
2019-05-12T17:26:41.235Z,46.61
2019-05-12T17:27:41.222Z,46.48
2019-05-12T17:28:43.474Z,46.32
2019-05-12T17:29:43.379Z,46.80
2019-05-12T17:30:43.535Z,46.80
2019-05-12T17:31:41.143Z,46.80
2019-05-12T17:32:54.899Z,46.70
2019-05-12T17:33:41.116Z,46.70
2019-05-12T17:34:45.843Z,46.61
2019-05-12T17:35:41.082Z,46.13
2019-05-12T17:36:41.120Z,46.22
2019-05-12T17:37:41.516Z,46.22
2019-05-12T17:38:41.046Z,46.22
2019-05-12T17:39:41.047Z,46.03
2019-05-12T17:40:41.021Z,45.17
2019-05-12T17:41:44.993Z,45.65
2019-05-12T17:42:41.016Z,45.46
2019-05-12T17:43:54.847Z,45.46
2019-05-12T17:44:40.956Z,45.46
2019-05-12T17:45:40.940Z,45.37
2019-05-12T17:46:40.933Z,45.75
2019-05-12T17:47:41.011Z,45.56
2019-05-12T17:48:42.837Z,46.13
2019-05-12T17:49:43.410Z,46.22
2019-05-12T17:50:48.557Z,45.82
2019-05-12T17:51:40.864Z,45.92
2019-05-12T17:52:40.850Z,46.39
2019-05-12T17:53:40.831Z,46.20
2019-05-12T17:54:43.234Z,46.39
2019-05-12T17:55:42.630Z,46.20
2019-05-12T17:56:40.782Z,46.20
2019-05-12T17:57:40.794Z,46.48
2019-05-12T17:58:45.197Z,46.77
2019-05-12T17:59:42.555Z,46.39
2019-05-12T18:00:41.261Z,46.87
2019-05-12T18:01:40.721Z,46.58
2019-05-12T18:02:40.711Z,47.34
2019-05-12T18:03:48.706Z,47.16
2019-05-12T18:04:40.682Z,47.03
2019-05-12T18:05:42.519Z,47.23
2019-05-12T18:06:40.639Z,47.03
2019-05-12T18:07:40.641Z,47.03
2019-05-12T18:08:40.617Z,47.13
2019-05-12T18:09:40.605Z,47.80
2019-05-12T18:10:40.596Z,47.71
2019-05-12T18:11:40.585Z,47.61
2019-05-12T18:12:44.842Z,47.52
2019-05-12T18:13:40.544Z,47.80
2019-05-12T18:14:46.793Z,47.89
2019-05-12T18:15:40.529Z,47.99
2019-05-12T18:16:43.327Z,47.89
2019-05-12T18:17:47.318Z,47.99
2019-05-12T18:18:40.462Z,48.08
2019-05-12T18:19:40.484Z,48.07
2019-05-12T18:20:43.992Z,48.54
2019-05-12T18:21:40.427Z,48.44